Time;durP1;ratioP1;P1;durP2;ratioP2;P2;SDS_P1;SDS_P2;PMS_P1;PMS_P2;Temp;Humidity;BMP_temperature;BMP_pressure;BME280_temperature;BME280_humidity;BME280_pressure;Samples;Min_cycle;Max_cycle;Signal;HPM_P1;HPM_P2
2023/06/21 00:02:04;;;;;;;21.67;13.43;;;;;;;;;;5058697;27;99187;-78
2023/06/21 00:04:30;;;;;;;22.48;15.20;;;;;;;;;;5051395;27;100926;-78
2023/06/21 00:06:57;;;;;;;15.57;10.95;;;;;;;;;;5055581;27;98857;-77
2023/06/21 00:09:24;;;;;;;14.18;9.75;;;;;;;;;;5060744;27;98562;-78
2023/06/21 00:11:50;;;;;;;16.60;11.50;;;;;;;;;;5077061;27;100945;-77
2023/06/21 00:14:17;;;;;;;16.35;11.10;;;;;;;;;;5066604;27;98762;-77
2023/06/21 00:16:45;;;;;;;22.95;15.43;;;;;;;;;;5072376;27;101585;-78
2023/06/21 00:19:12;;;;;;;22.13;14.85;;;;;;;;;;5058218;27;99453;-76
2023/06/21 00:21:39;;;;;;;15.63;10.20;;;;;;;;;;5071351;27;103095;-76
2023/06/21 00:24:06;;;;;;;15.43;9.20;;;;;;;;;;5082072;27;98500;-76
2023/06/21 00:26:33;;;;;;;19.20;12.15;;;;;;;;;;5070308;27;100114;-76
2023/06/21 00:29:00;;;;;;;17.05;10.95;;;;;;;;;;5060931;27;98365;-76
2023/06/21 00:31:27;;;;;;;16.58;11.18;;;;;;;;;;5067575;27;98597;-77
2023/06/21 00:33:54;;;;;;;22.35;13.52;;;;;;;;;;5065212;27;99166;-77
2023/06/21 00:36:20;;;;;;;18.60;12.88;;;;;;;;;;5065498;27;97576;-77
2023/06/21 00:38:47;;;;;;;17.10;10.60;;;;;;;;;;5060244;27;98315;-76
2023/06/21 00:41:16;;;;;;;16.80;11.65;;;;;;;;;;5062523;27;100005;-76
2023/06/21 00:43:42;;;;;;;16.20;10.32;;;;;;;;;;5077158;27;99057;-77
2023/06/21 00:46:09;;;;;;;13.23;8.73;;;;;;;;;;5050910;27;101973;-77
2023/06/21 00:48:35;;;;;;;14.05;8.57;;;;;;;;;;5080163;27;98199;-77
2023/06/21 00:51:02;;;;;;;14.75;9.20;;;;;;;;;;5078719;27;100725;-78
2023/06/21 00:53:30;;;;;;;12.45;8.00;;;;;;;;;;5066471;27;99448;-77
2023/06/21 00:55:56;;;;;;;18.33;11.63;;;;;;;;;;5063747;27;98368;-77
2023/06/21 00:58:23;;;;;;;12.60;7.90;;;;;;;;;;5058317;27;98506;-77
2023/06/21 01:00:50;;;;;;;18.23;12.18;;;;;;;;;;5058261;27;98431;-78
2023/06/21 01:03:18;;;;;;;18.52;13.13;;;;;;;;;;5056093;27;98204;-78
2023/06/21 01:05:52;;;;;;;14.90;9.52;;;;;;;;;;5058757;27;98590;-78
2023/06/21 01:08:27;;;;;;;17.75;12.50;;;;;;;;;;5060706;27;99934;-76
2023/06/21 01:11:03;;;;;;;17.20;11.32;;;;;;;;;;5058662;27;99416;-76
2023/06/21 01:13:48;;;;;;;16.98;11.90;;;;;;;;;;5061493;27;98683;-77
2023/06/21 01:16:15;;;;;;;;;;;;;;;;;;5057502;27;98850;-78
2023/06/21 01:18:45;;;;;;;15.23;9.77;;;;;;;;;;5059499;27;123324;-77
2023/06/21 01:21:18;;;;;;;15.63;10.23;;;;;;;;;;5058636;27;99045;-77
2023/06/21 01:24:00;;;;;;;19.70;13.02;;;;;;;;;;5056557;27;98260;-79
2023/06/21 01:26:30;;;;;;;20.38;13.63;;;;;;;;;;5073990;27;101049;-79
2023/06/21 01:29:00;;;;;;;17.42;11.63;;;;;;;;;;5057780;27;98793;-79
2023/06/21 01:31:27;;;;;;;19.52;12.18;;;;;;;;;;5060424;27;98555;-79
2023/06/21 01:33:53;;;;;;;;;;;;;;;;;;5047413;27;101917;-79
2023/06/21 01:36:22;;;;;;;15.05;9.82;;;;;;;;;;5073232;27;98294;-77
2023/06/21 01:38:56;;;;;;;17.15;10.60;;;;;;;;;;5058651;27;98546;-78
2023/06/21 01:41:25;;;;;;;17.40;11.32;;;;;;;;;;5054901;27;100948;-80
2023/06/21 01:43:56;;;;;;;18.75;11.98;;;;;;;;;;5056744;27;98427;-79
2023/06/21 01:46:23;;;;;;;13.30;8.45;;;;;;;;;;5063923;27;98460;-79
2023/06/21 01:48:49;;;;;;;;;;;;;;;;;;5079321;27;98806;-79
2023/06/21 01:51:17;;;;;;;15.32;9.75;;;;;;;;;;5061151;27;98547;-79
2023/06/21 01:53:43;;;;;;;13.90;8.73;;;;;;;;;;5055598;27;100408;-77
2023/06/21 01:56:13;;;;;;;14.80;10.80;;;;;;;;;;5074154;27;99262;-79
2023/06/21 01:58:39;;;;;;;13.30;8.23;;;;;;;;;;5057123;27;99389;-76
2023/06/21 02:01:07;;;;;;;11.98;7.13;;;;;;;;;;5056183;27;100953;-78
2023/06/21 02:03:33;;;;;;;;;;;;;;;;;;5057729;27;102436;-78
2023/06/21 02:06:03;;;;;;;14.95;9.10;;;;;;;;;;5040726;27;124814;-79
2023/06/21 02:08:30;;;;;;;13.60;8.27;;;;;;;;;;5062826;27;100821;-79
2023/06/21 02:10:57;;;;;;;;;;;;;;;;;;5068819;27;98511;-78
2023/06/21 02:13:26;;;;;;;15.77;9.82;;;;;;;;;;5060151;27;103785;-78
2023/06/21 02:15:53;;;;;;;12.70;7.35;;;;;;;;;;5058742;27;97451;-78
2023/06/21 02:18:23;;;;;;;13.13;7.75;;;;;;;;;;5070190;27;100231;-78
2023/06/21 02:20:50;;;;;;;14.60;7.72;;;;;;;;;;5058589;27;98878;-77
2023/06/21 02:23:18;;;;;;;13.27;8.55;;;;;;;;;;5054739;27;99065;-76
2023/06/21 02:25:44;;;;;;;13.40;8.75;;;;;;;;;;5076912;27;102456;-76
2023/06/21 02:28:11;;;;;;;17.85;11.25;;;;;;;;;;5074558;27;100222;-77
2023/06/21 02:30:37;;;;;;;18.25;11.43;;;;;;;;;;5063561;27;98539;-76
2023/06/21 02:33:04;;;;;;;25.45;16.33;;;;;;;;;;5057058;27;101223;-76
2023/06/21 02:35:31;;;;;;;28.17;18.75;;;;;;;;;;5072338;27;98807;-77
2023/06/21 02:37:58;;;;;;;18.70;11.73;;;;;;;;;;5064656;27;99138;-77
2023/06/21 02:40:24;;;;;;;;;;;;;;;;;;5057734;27;97951;-78
2023/06/21 02:42:52;;;;;;;21.15;13.65;;;;;;;;;;5077368;27;98395;-76
2023/06/21 02:45:19;;;;;;;19.67;12.30;;;;;;;;;;5075167;27;100942;-77
2023/06/21 02:47:46;;;;;;;33.95;21.27;;;;;;;;;;5057859;27;102204;-75
2023/06/21 02:50:15;;;;;;;32.47;21.48;;;;;;;;;;5076929;27;98224;-76
2023/06/21 02:52:41;;;;;;;37.33;23.45;;;;;;;;;;5072464;27;98782;-77
2023/06/21 02:55:08;;;;;;;26.50;17.52;;;;;;;;;;5037309;27;101728;-76
2023/06/21 02:57:35;;;;;;;37.38;22.98;;;;;;;;;;5073444;27;98918;-76
2023/06/21 03:00:14;;;;;;;40.72;24.25;;;;;;;;;;5076550;27;98877;-76
2023/06/21 03:02:44;;;;;;;37.58;22.85;;;;;;;;;;5076636;27;98263;-77
2023/06/21 03:05:12;;;;;;;27.23;17.02;;;;;;;;;;5072963;27;98460;-77
2023/06/21 03:07:43;;;;;;;33.45;20.98;;;;;;;;;;5054372;27;104365;-78
2023/06/21 03:10:12;;;;;;;30.42;18.67;;;;;;;;;;5045812;27;98738;-77
2023/06/21 03:12:39;;;;;;;30.02;18.75;;;;;;;;;;5067737;27;106662;-78
2023/06/21 03:15:07;;;;;;;24.17;15.23;;;;;;;;;;5074590;27;101505;-76
2023/06/21 03:17:33;;;;;;;;;;;;;;;;;;5076083;27;99318;-76
2023/06/21 03:20:00;;;;;;;25.25;14.98;;;;;;;;;;5077328;27;112966;-75
2023/06/21 03:22:27;;;;;;;20.75;13.30;;;;;;;;;;5075065;27;98199;-75
2023/06/21 03:24:54;;;;;;;19.85;12.77;;;;;;;;;;5074657;27;99017;-74
2023/06/21 03:27:20;;;;;;;26.05;16.25;;;;;;;;;;5060370;27;100840;-74
2023/06/21 03:29:47;;;;;;;22.65;13.93;;;;;;;;;;5058519;27;97451;-75
2023/06/21 03:32:14;;;;;;;25.98;15.95;;;;;;;;;;5056739;27;98291;-77
2023/06/21 03:34:41;;;;;;;25.85;16.10;;;;;;;;;;5055703;27;98719;-75
2023/06/21 03:37:07;;;;;;;25.58;16.88;;;;;;;;;;5055126;27;99467;-75
2023/06/21 03:39:34;;;;;;;25.65;16.52;;;;;;;;;;5062703;27;99188;-75
2023/06/21 03:42:01;;;;;;;23.67;13.93;;;;;;;;;;5066855;27;99680;-75
2023/06/21 03:44:29;;;;;;;22.65;13.52;;;;;;;;;;5056110;27;100866;-75
2023/06/21 03:46:58;;;;;;;26.17;16.90;;;;;;;;;;5057397;27;101349;-75
2023/06/21 03:49:26;;;;;;;27.38;16.70;;;;;;;;;;5076571;27;98384;-76
2023/06/21 03:51:52;;;;;;;23.95;14.80;;;;;;;;;;5073644;27;98586;-76
2023/06/21 03:54:20;;;;;;;26.40;16.33;;;;;;;;;;5077912;27;100183;-76
2023/06/21 03:56:46;;;;;;;29.45;17.33;;;;;;;;;;5078840;27;98436;-77
2023/06/21 03:59:13;;;;;;;27.20;17.83;;;;;;;;;;5077596;27;99365;-77
2023/06/21 04:01:39;;;;;;;35.17;19.92;;;;;;;;;;5070962;27;106516;-78
2023/06/21 04:04:08;;;;;;;25.08;14.45;;;;;;;;;;5059830;27;98204;-76
2023/06/21 04:06:37;;;;;;;27.38;17.38;;;;;;;;;;5056898;27;100742;-76
2023/06/21 04:09:03;;;;;;;23.45;13.25;;;;;;;;;;5069826;27;98527;-76
2023/06/21 04:11:30;;;;;;;24.50;15.00;;;;;;;;;;5076835;27;98988;-76
2023/06/21 04:13:56;;;;;;;22.45;14.85;;;;;;;;;;5068590;27;100744;-76
2023/06/21 04:16:23;;;;;;;23.73;14.10;;;;;;;;;;5077112;27;98712;-76
2023/06/21 04:18:50;;;;;;;19.13;12.25;;;;;;;;;;5077780;27;101779;-76
2023/06/21 04:21:16;;;;;;;25.42;15.40;;;;;;;;;;5061492;27;98710;-76
2023/06/21 04:23:43;;;;;;;19.17;12.15;;;;;;;;;;5067909;27;98269;-76
2023/06/21 04:26:12;;;;;;;17.10;10.32;;;;;;;;;;5078165;27;99427;-77
2023/06/21 04:28:41;;;;;;;17.63;10.88;;;;;;;;;;5066704;27;98246;-78
2023/06/21 04:31:08;;;;;;;26.45;16.42;;;;;;;;;;5059906;27;101280;-77
2023/06/21 04:33:34;;;;;;;20.85;12.98;;;;;;;;;;5058442;27;101967;-77
2023/06/21 04:36:01;;;;;;;23.27;14.45;;;;;;;;;;5066933;27;98202;-77
2023/06/21 04:38:27;;;;;;;19.45;12.00;;;;;;;;;;5056327;27;100818;-77
2023/06/21 04:40:54;;;;;;;19.67;12.38;;;;;;;;;;5056446;27;100826;-77
2023/06/21 04:43:24;;;;;;;26.98;16.63;;;;;;;;;;5068213;27;98096;-77
2023/06/21 04:45:51;;;;;;;29.42;18.75;;;;;;;;;;5078577;27;98605;-77
2023/06/21 04:48:24;;;;;;;20.50;12.23;;;;;;;;;;5067467;27;98057;-77
2023/06/21 04:50:50;;;;;;;18.10;10.95;;;;;;;;;;5056158;27;101043;-77
2023/06/21 04:53:17;;;;;;;16.98;10.25;;;;;;;;;;5047088;27;100402;-78
2023/06/21 04:55:43;;;;;;;19.90;12.85;;;;;;;;;;5072328;27;98677;-77
2023/06/21 04:58:12;;;;;;;18.95;11.95;;;;;;;;;;5065984;27;100393;-77
2023/06/21 05:00:38;;;;;;;15.77;9.60;;;;;;;;;;5076547;27;99130;-77
2023/06/21 05:03:05;;;;;;;25.70;16.30;;;;;;;;;;5071324;27;98547;-78
2023/06/21 05:05:32;;;;;;;24.85;15.75;;;;;;;;;;5069912;27;98482;-76
2023/06/21 05:08:00;;;;;;;21.48;13.27;;;;;;;;;;5076909;27;98282;-78
2023/06/21 05:10:27;;;;;;;29.05;17.63;;;;;;;;;;5057824;27;98487;-80
2023/06/21 05:12:55;;;;;;;19.05;11.30;;;;;;;;;;5069149;27;98786;-80
2023/06/21 05:15:21;;;;;;;17.98;10.70;;;;;;;;;;5067294;27;99008;-79
2023/06/21 05:17:48;;;;;;;15.25;8.95;;;;;;;;;;5055530;27;99456;-79
2023/06/21 05:20:15;;;;;;;19.08;11.77;;;;;;;;;;5065614;27;99392;-79
2023/06/21 05:22:42;;;;;;;19.73;9.80;;;;;;;;;;5057200;27;98549;-77
2023/06/21 05:25:09;;;;;;;24.15;15.43;;;;;;;;;;5056910;27;101291;-78
2023/06/21 05:27:35;;;;;;;25.75;14.77;;;;;;;;;;5056379;27;98655;-78
2023/06/21 05:30:02;;;;;;;19.98;12.98;;;;;;;;;;5060479;27;98255;-78
2023/06/21 05:32:29;;;;;;;29.88;17.45;;;;;;;;;;5056227;27;98072;-78
2023/06/21 05:34:56;;;;;;;24.17;14.95;;;;;;;;;;5059804;27;98813;-78
2023/06/21 05:37:22;;;;;;;15.68;8.68;;;;;;;;;;5076665;27;98859;-76
2023/06/21 05:39:52;;;;;;;16.15;9.02;;;;;;;;;;5073560;27;99502;-78
2023/06/21 05:42:19;;;;;;;23.13;14.27;;;;;;;;;;5058190;27;98271;-77
2023/06/21 05:44:45;;;;;;;17.23;10.30;;;;;;;;;;5056906;27;99480;-77
2023/06/21 05:47:12;;;;;;;20.75;11.60;;;;;;;;;;5055470;27;99992;-78
2023/06/21 05:49:38;;;;;;;29.05;16.70;;;;;;;;;;5038831;27;98282;-79
2023/06/21 05:52:05;;;;;;;15.65;9.02;;;;;;;;;;5068594;27;98466;-77
2023/06/21 05:54:32;;;;;;;25.67;15.35;;;;;;;;;;5066581;27;98914;-79
2023/06/21 05:56:58;;;;;;;23.50;13.63;;;;;;;;;;5076123;27;98480;-77
2023/06/21 05:59:25;;;;;;;24.10;14.38;;;;;;;;;;5058320;27;99037;-78
2023/06/21 06:01:51;;;;;;;14.02;7.70;;;;;;;;;;5056905;27;98244;-75
2023/06/21 06:04:18;;;;;;;13.57;7.60;;;;;;;;;;5055564;27;99576;-76
2023/06/21 06:06:44;;;;;;;16.02;8.73;;;;;;;;;;5073255;27;98724;-77
2023/06/21 06:09:11;;;;;;;14.10;8.13;;;;;;;;;;5063994;27;98225;-78
2023/06/21 06:11:38;;;;;;;22.60;13.13;;;;;;;;;;5059800;27;98682;-79
2023/06/21 06:14:04;;;;;;;18.85;10.23;;;;;;;;;;5055495;27;98631;-77
2023/06/21 06:16:31;;;;;;;23.95;12.63;;;;;;;;;;5056711;27;99677;-77
2023/06/21 06:18:58;;;;;;;17.60;9.88;;;;;;;;;;5055465;27;98747;-78
2023/06/21 06:21:24;;;;;;;13.60;7.15;;;;;;;;;;5069945;27;97341;-76
2023/06/21 06:23:51;;;;;;;14.18;6.93;;;;;;;;;;5077518;27;98252;-76
2023/06/21 06:26:22;;;;;;;11.80;6.38;;;;;;;;;;5059719;27;99177;-75
2023/06/21 06:28:49;;;;;;;13.93;7.38;;;;;;;;;;5056835;27;99017;-75
2023/06/21 06:31:26;;;;;;;11.27;6.30;;;;;;;;;;5056075;27;99309;-78
2023/06/21 06:33:53;;;;;;;12.70;6.05;;;;;;;;;;5066506;27;98727;-77
2023/06/21 06:36:20;;;;;;;12.15;6.55;;;;;;;;;;5070886;27;99361;-77
2023/06/21 06:38:50;;;;;;;9.85;5.45;;;;;;;;;;5056347;27;99393;-79
2023/06/21 06:41:17;;;;;;;12.25;6.65;;;;;;;;;;5054636;27;98419;-78
2023/06/21 06:43:44;;;;;;;11.98;5.75;;;;;;;;;;5058879;27;99563;-77
2023/06/21 06:46:10;;;;;;;13.23;6.70;;;;;;;;;;5056872;27;98324;-77
2023/06/21 06:48:37;;;;;;;14.07;5.93;;;;;;;;;;5055531;27;98787;-80
2023/06/21 06:51:04;;;;;;;12.50;6.25;;;;;;;;;;5057158;27;98293;-77
2023/06/21 06:53:30;;;;;;;11.60;5.85;;;;;;;;;;5063335;27;99952;-76
2023/06/21 06:55:58;;;;;;;14.40;7.25;;;;;;;;;;5076162;27;99047;-76
2023/06/21 06:58:26;;;;;;;12.52;5.80;;;;;;;;;;5055000;27;99191;-76
2023/06/21 07:00:53;;;;;;;12.77;6.70;;;;;;;;;;5054729;27;99160;-77
2023/06/21 07:03:20;;;;;;;16.63;9.45;;;;;;;;;;5056201;27;98877;-76
2023/06/21 07:05:47;;;;;;;11.75;7.10;;;;;;;;;;5058550;27;99078;-76
2023/06/21 07:08:14;;;;;;;14.85;8.38;;;;;;;;;;5056197;27;98509;-77
2023/06/21 07:10:40;;;;;;;14.30;7.05;;;;;;;;;;5056771;27;98436;-77
2023/06/21 07:13:07;;;;;;;13.02;6.57;;;;;;;;;;5055750;27;99257;-77
2023/06/21 07:15:33;;;;;;;13.73;5.82;;;;;;;;;;5054705;27;98890;-76
2023/06/21 07:18:00;;;;;;;12.55;7.20;;;;;;;;;;5058038;27;98992;-76
2023/06/21 07:20:27;;;;;;;12.35;7.28;;;;;;;;;;5068359;27;98258;-76
2023/06/21 07:22:55;;;;;;;14.18;8.85;;;;;;;;;;5064079;27;101040;-76
2023/06/21 07:25:22;;;;;;;18.27;8.77;;;;;;;;;;5076972;27;101683;-77
2023/06/21 07:27:49;;;;;;;14.55;8.45;;;;;;;;;;5073637;27;98249;-77
2023/06/21 07:30:16;;;;;;;14.57;8.20;;;;;;;;;;5060341;27;100628;-77
2023/06/21 07:32:43;;;;;;;14.48;8.98;;;;;;;;;;5059868;27;101203;-77
2023/06/21 07:35:12;;;;;;;14.65;9.23;;;;;;;;;;5059859;27;97590;-77
2023/06/21 07:37:39;;;;;;;12.77;6.88;;;;;;;;;;5059206;27;102384;-77
2023/06/21 07:40:06;;;;;;;13.23;7.72;;;;;;;;;;5068200;27;101043;-77
2023/06/21 07:42:33;;;;;;;13.40;6.47;;;;;;;;;;5078358;27;98965;-77
2023/06/21 07:44:59;;;;;;;10.13;5.07;;;;;;;;;;5079753;27;98824;-77
2023/06/21 07:47:27;;;;;;;8.93;4.60;;;;;;;;;;5067255;27;98420;-77
2023/06/21 07:49:54;;;;;;;11.73;4.80;;;;;;;;;;5068061;27;100905;-77
2023/06/21 07:52:22;;;;;;;9.88;4.50;;;;;;;;;;5074357;27;98714;-78
2023/06/21 07:54:49;;;;;;;9.15;4.65;;;;;;;;;;5059357;27;100215;-77
2023/06/21 07:57:16;;;;;;;11.20;4.82;;;;;;;;;;5075920;27;98341;-76
2023/06/21 07:59:43;;;;;;;10.27;4.45;;;;;;;;;;5068357;27;98498;-77
2023/06/21 08:02:10;;;;;;;;;;;;;;;;;;5061043;27;98357;-77
2023/06/21 08:04:37;;;;;;;10.70;5.05;;;;;;;;;;5071203;27;98708;-77
2023/06/21 08:07:03;;;;;;;;;;;;;;;;;;5078782;27;106993;-78
2023/06/21 08:09:30;;;;;;;11.35;5.07;;;;;;;;;;5069217;27;112418;-76
2023/06/21 08:11:57;;;;;;;9.73;4.00;;;;;;;;;;5067215;27;99268;-76
2023/06/21 08:14:23;;;;;;;7.72;2.95;;;;;;;;;;5068828;27;98333;-77
2023/06/21 08:16:50;;;;;;;9.73;3.97;;;;;;;;;;5072467;27;99335;-78
2023/06/21 08:19:16;;;;;;;7.15;2.75;;;;;;;;;;5059364;27;101172;-77
2023/06/21 08:21:44;;;;;;;9.25;4.68;;;;;;;;;;5082507;27;98120;-77
2023/06/21 08:24:12;;;;;;;12.65;5.57;;;;;;;;;;5075421;27;98031;-78
2023/06/21 08:26:38;;;;;;;9.25;5.20;;;;;;;;;;5070861;27;98365;-77
2023/06/21 08:29:05;;;;;;;11.32;5.85;;;;;;;;;;5070960;27;98774;-76
2023/06/21 08:31:31;;;;;;;9.85;5.95;;;;;;;;;;5064946;27;102435;-76
2023/06/21 08:33:58;;;;;;;9.60;5.60;;;;;;;;;;5068085;27;98464;-77
2023/06/21 08:36:26;;;;;;;10.48;5.63;;;;;;;;;;5060404;27;100069;-77
2023/06/21 08:38:52;;;;;;;9.05;5.00;;;;;;;;;;5057969;27;98586;-76
2023/06/21 08:41:19;;;;;;;8.02;4.40;;;;;;;;;;5075741;27;98299;-77
2023/06/21 08:43:46;;;;;;;9.43;4.20;;;;;;;;;;5074438;27;99099;-77
2023/06/21 08:46:12;;;;;;;8.45;3.70;;;;;;;;;;5077613;27;98308;-77
2023/06/21 08:48:40;;;;;;;8.85;4.20;;;;;;;;;;5070468;27;101003;-77
2023/06/21 08:51:06;;;;;;;7.47;3.67;;;;;;;;;;5075669;27;98718;-76
2023/06/21 08:54:11;;;;;;;9.25;5.60;;;;;;;;;;5065189;27;98184;-77
2023/06/21 08:56:43;;;;;;;6.32;3.45;;;;;;;;;;4998499;28;99934;-77
2023/06/21 08:59:19;;;;;;;7.63;3.20;;;;;;;;;;4977641;28;100952;-77
2023/06/21 09:01:57;;;;;;;6.43;2.67;;;;;;;;;;5031183;27;98261;-76
2023/06/21 09:04:28;;;;;;;7.25;2.40;;;;;;;;;;5058605;27;99022;-76
2023/06/21 09:06:55;;;;;;;4.88;2.10;;;;;;;;;;5079248;27;99116;-76
2023/06/21 09:09:24;;;;;;;4.75;1.80;;;;;;;;;;5064621;27;100491;-78
2023/06/21 09:11:51;;;;;;;5.80;1.83;;;;;;;;;;5069513;27;98779;-78
2023/06/21 09:14:19;;;;;;;5.28;2.15;;;;;;;;;;5068477;27;99823;-77
2023/06/21 09:16:46;;;;;;;5.97;2.08;;;;;;;;;;5069361;27;98386;-79
2023/06/21 09:19:13;;;;;;;6.13;2.13;;;;;;;;;;5063086;27;99362;-78
2023/06/21 09:21:41;;;;;;;6.85;2.58;;;;;;;;;;5060955;27;99121;-78
2023/06/21 09:24:07;;;;;;;5.65;2.05;;;;;;;;;;5076616;27;99154;-78
2023/06/21 09:26:35;;;;;;;5.47;1.50;;;;;;;;;;5065129;27;99142;-78
2023/06/21 09:29:02;;;;;;;3.22;1.40;;;;;;;;;;5069624;27;98241;-79
2023/06/21 09:31:29;;;;;;;4.45;1.67;;;;;;;;;;5074195;27;98894;-78
2023/06/21 09:33:56;;;;;;;5.03;1.60;;;;;;;;;;5066489;27;98532;-77
2023/06/21 09:36:24;;;;;;;5.22;1.70;;;;;;;;;;5060910;27;98324;-79
2023/06/21 09:38:51;;;;;;;4.45;1.70;;;;;;;;;;5074065;27;98380;-76
2023/06/21 09:41:17;;;;;;;4.78;1.73;;;;;;;;;;5077678;27;98569;-76
2023/06/21 09:43:44;;;;;;;5.40;1.75;;;;;;;;;;5074565;27;98520;-75
2023/06/21 09:46:12;;;;;;;;;;;;;;;;;;5065355;27;101804;-75
2023/06/21 09:48:39;;;;;;;4.25;1.58;;;;;;;;;;5072980;27;98300;-77
2023/06/21 09:51:14;;;;;;;3.38;1.40;;;;;;;;;;5059787;27;99519;-77
2023/06/21 09:53:41;;;;;;;4.78;1.83;;;;;;;;;;5070388;27;100203;-77
2023/06/21 09:56:08;;;;;;;;;;;;;;;;;;5076977;27;98658;-76
2023/06/21 09:58:34;;;;;;;5.13;1.98;;;;;;;;;;5061117;27;124718;-77
2023/06/21 10:01:06;;;;;;;6.03;2.00;;;;;;;;;;5058737;27;98189;-77
2023/06/21 10:03:33;;;;;;;6.22;2.20;;;;;;;;;;5056877;27;101066;-78
2023/06/21 10:06:01;;;;;;;7.45;2.42;;;;;;;;;;5059163;27;101325;-77
2023/06/21 10:08:29;;;;;;;5.22;2.13;;;;;;;;;;5058618;27;98169;-78
2023/06/21 10:10:56;;;;;;;5.40;1.70;;;;;;;;;;5076965;27;98909;-77
2023/06/21 10:13:25;;;;;;;5.40;2.05;;;;;;;;;;5070234;27;98957;-77
2023/06/21 10:15:53;;;;;;;4.55;1.67;;;;;;;;;;5070277;27;101400;-76
2023/06/21 10:18:20;;;;;;;5.28;2.00;;;;;;;;;;5067367;27;98703;-76
2023/06/21 10:20:49;;;;;;;4.60;1.88;;;;;;;;;;5073861;27;98328;-76
2023/06/21 10:23:16;;;;;;;6.28;2.00;;;;;;;;;;5060066;27;98451;-78
2023/06/21 10:25:44;;;;;;;6.45;2.08;;;;;;;;;;5056433;27;98808;-77
2023/06/21 10:28:13;;;;;;;4.63;1.40;;;;;;;;;;5059705;27;97539;-78
2023/06/21 10:30:39;;;;;;;3.10;1.50;;;;;;;;;;5068188;27;98134;-77
2023/06/21 10:33:06;;;;;;;5.15;1.85;;;;;;;;;;5078501;27;99250;-76
2023/06/21 10:35:34;;;;;;;4.45;1.80;;;;;;;;;;5070509;27;99261;-76
2023/06/21 10:38:09;;;;;;;5.00;1.95;;;;;;;;;;5066494;27;98747;-76
2023/06/21 10:40:36;;;;;;;4.20;1.65;;;;;;;;;;5075723;27;98818;-76
2023/06/21 10:43:04;;;;;;;4.30;1.77;;;;;;;;;;5077957;27;98620;-77
2023/06/21 10:45:31;;;;;;;5.45;2.00;;;;;;;;;;5056298;27;98770;-77
2023/06/21 10:47:57;;;;;;;;;;;;;;;;;;5061337;27;98683;-77
2023/06/21 10:50:24;;;;;;;4.60;1.73;;;;;;;;;;5078036;27;100588;-77
2023/06/21 10:52:53;;;;;;;5.07;1.75;;;;;;;;;;5072649;27;98144;-76
2023/06/21 10:55:21;;;;;;;5.00;2.03;;;;;;;;;;5059626;27;98180;-77
2023/06/21 10:57:50;;;;;;;6.57;2.00;;;;;;;;;;5058381;27;98560;-76
2023/06/21 11:00:17;;;;;;;5.70;2.20;;;;;;;;;;5066276;27;99141;-76
2023/06/21 11:02:44;;;;;;;6.20;2.30;;;;;;;;;;5076397;27;99186;-76
2023/06/21 11:05:11;;;;;;;5.32;2.17;;;;;;;;;;5073092;27;99696;-77
2023/06/21 11:07:52;;;;;;;3.78;1.73;;;;;;;;;;5076220;27;98277;-78
2023/06/21 11:10:29;;;;;;;5.45;2.00;;;;;;;;;;5056401;27;100762;-77
2023/06/21 11:12:56;;;;;;;5.88;2.33;;;;;;;;;;5065439;27;100514;-76
2023/06/21 11:15:26;;;;;;;4.78;1.75;;;;;;;;;;5074320;27;98271;-77
2023/06/21 11:17:56;;;;;;;4.97;2.10;;;;;;;;;;5067098;27;98218;-77
2023/06/21 11:20:24;;;;;;;5.65;2.28;;;;;;;;;;5061325;27;98159;-77
2023/06/21 11:23:10;;;;;;;5.25;2.10;;;;;;;;;;5060589;27;98623;-76
2023/06/21 11:25:36;;;;;;;7.35;2.10;;;;;;;;;;5074698;27;99454;-76
2023/06/21 11:28:26;;;;;;;5.07;2.20;;;;;;;;;;5071495;27;98531;-76
2023/06/21 11:31:14;;;;;;;4.93;1.92;;;;;;;;;;5074119;27;98619;-78
2023/06/21 11:33:44;;;;;;;4.78;1.90;;;;;;;;;;5070534;27;103525;-77
2023/06/21 11:36:11;;;;;;;6.53;2.17;;;;;;;;;;5074919;27;98718;-77
2023/06/21 11:38:37;;;;;;;4.90;1.63;;;;;;;;;;5063290;27;99902;-76
2023/06/21 11:41:24;;;;;;;4.00;1.80;;;;;;;;;;5073547;27;98607;-75
2023/06/21 11:43:57;;;;;;;4.47;1.70;;;;;;;;;;5063210;27;103752;-75
2023/06/21 11:46:24;;;;;;;4.72;1.70;;;;;;;;;;5056346;27;98951;-76
2023/06/21 11:48:58;;;;;;;4.10;1.55;;;;;;;;;;5060545;27;98845;-75
2023/06/21 11:51:24;;;;;;;5.70;1.52;;;;;;;;;;5057682;27;99331;-75
2023/06/21 11:53:51;;;;;;;5.40;2.10;;;;;;;;;;5066170;27;98846;-78
2023/06/21 11:56:19;;;;;;;5.10;1.70;;;;;;;;;;5065854;27;98393;-76
2023/06/21 11:58:46;;;;;;;5.47;1.92;;;;;;;;;;5063552;27;98461;-75
2023/06/21 12:01:13;;;;;;;4.45;1.83;;;;;;;;;;5063331;27;99323;-77
2023/06/21 12:03:40;;;;;;;8.63;3.97;;;;;;;;;;5075449;27;98339;-76
2023/06/21 12:06:07;;;;;;;4.05;1.65;;;;;;;;;;5074205;27;98756;-76
2023/06/21 12:08:34;;;;;;;6.38;2.00;;;;;;;;;;5072141;27;97856;-77
2023/06/21 12:11:02;;;;;;;4.43;1.65;;;;;;;;;;5073009;27;98619;-78
2023/06/21 12:13:29;;;;;;;5.70;2.00;;;;;;;;;;5062152;27;99719;-77
2023/06/21 12:15:57;;;;;;;3.83;1.60;;;;;;;;;;5067333;27;99203;-78
2023/06/21 12:18:24;;;;;;;6.32;1.73;;;;;;;;;;5069551;27;99583;-77
2023/06/21 12:20:51;;;;;;;;;;;;;;;;;;5071327;27;100790;-77
2023/06/21 12:23:20;;;;;;;4.10;1.58;;;;;;;;;;5063776;27;98312;-77
2023/06/21 12:25:50;;;;;;;5.63;1.73;;;;;;;;;;5072214;27;98542;-79
2023/06/21 12:28:18;;;;;;;6.00;1.98;;;;;;;;;;5065402;27;98146;-77
2023/06/21 12:30:51;;;;;;;6.70;1.60;;;;;;;;;;5057964;27;99670;-76
2023/06/21 12:33:18;;;;;;;4.53;1.88;;;;;;;;;;5068801;27;99275;-75
2023/06/21 12:35:44;;;;;;;;;;;;;;;;;;5074026;27;98547;-75
2023/06/21 12:38:12;;;;;;;4.32;1.50;;;;;;;;;;5069620;27;121600;-75
2023/06/21 12:40:51;;;;;;;4.63;1.50;;;;;;;;;;5059614;27;100012;-76
2023/06/21 12:43:37;;;;;;;5.93;2.00;;;;;;;;;;5064405;27;98387;-77
2023/06/21 12:46:04;;;;;;;4.78;1.70;;;;;;;;;;5057888;27;101188;-76
2023/06/21 12:48:31;;;;;;;5.95;1.88;;;;;;;;;;5061390;27;98399;-76
2023/06/21 12:50:58;;;;;;;5.53;1.85;;;;;;;;;;5056232;27;98437;-76
2023/06/21 12:53:27;;;;;;;6.43;2.17;;;;;;;;;;5063448;27;99033;-75
2023/06/21 12:55:53;;;;;;;5.07;1.77;;;;;;;;;;5058988;27;98317;-76
2023/06/21 12:58:20;;;;;;;5.93;1.92;;;;;;;;;;5063471;27;99090;-76
2023/06/21 13:00:47;;;;;;;4.60;1.63;;;;;;;;;;5062658;27;100206;-76
2023/06/21 13:03:15;;;;;;;4.65;1.80;;;;;;;;;;5056712;27;99339;-76
2023/06/21 13:05:42;;;;;;;7.55;2.10;;;;;;;;;;5071137;27;105664;-76
2023/06/21 13:08:08;;;;;;;7.07;2.15;;;;;;;;;;5071551;27;98807;-75
2023/06/21 13:10:35;;;;;;;5.78;2.10;;;;;;;;;;5066016;27;98193;-76
2023/06/21 13:13:01;;;;;;;5.72;2.10;;;;;;;;;;5057065;27;99702;-77
2023/06/21 13:15:28;;;;;;;7.00;2.13;;;;;;;;;;5054677;27;98984;-76
2023/06/21 13:17:56;;;;;;;5.22;1.88;;;;;;;;;;5059161;27;99745;-75
2023/06/21 13:20:23;;;;;;;5.97;2.05;;;;;;;;;;5065659;27;98825;-76
2023/06/21 13:22:50;;;;;;;;;;;;;;;;;;5043542;27;97934;-76
2023/06/21 13:25:17;;;;;;;5.15;1.90;;;;;;;;;;5057376;27;98340;-77
2023/06/21 13:27:43;;;;;;;;;;;;;;;;;;5064847;27;98971;-77
2023/06/21 13:30:10;;;;;;;5.10;1.95;;;;;;;;;;5063908;27;106135;-74
2023/06/21 13:32:38;;;;;;;6.35;2.20;;;;;;;;;;5067240;27;99834;-75
2023/06/21 13:35:06;;;;;;;6.85;2.30;;;;;;;;;;5068058;27;100478;-75
2023/06/21 13:37:32;;;;;;;5.72;2.20;;;;;;;;;;5066595;27;98403;-75
2023/06/21 13:39:59;;;;;;;5.82;1.90;;;;;;;;;;5058304;27;99455;-75
2023/06/21 13:42:25;;;;;;;5.15;2.13;;;;;;;;;;5056133;27;98539;-75
2023/06/21 13:44:52;;;;;;;5.78;1.90;;;;;;;;;;5056493;27;98816;-75
2023/06/21 13:47:18;;;;;;;4.70;1.85;;;;;;;;;;5052122;27;100114;-75
2023/06/21 13:49:48;;;;;;;8.05;3.00;;;;;;;;;;5056962;27;98460;-75
2023/06/21 13:52:16;;;;;;;7.68;2.55;;;;;;;;;;5064779;27;98872;-75
2023/06/21 13:54:43;;;;;;;8.10;3.35;;;;;;;;;;5059611;27;99129;-76
2023/06/21 13:57:14;;;;;;;8.95;3.20;;;;;;;;;;5070632;27;99703;-76
2023/06/21 13:59:44;;;;;;;7.90;3.00;;;;;;;;;;5056642;27;103367;-75
2023/06/21 14:02:11;;;;;;;7.70;2.80;;;;;;;;;;5068587;27;100083;-76
2023/06/21 14:04:39;;;;;;;5.65;2.35;;;;;;;;;;5060512;27;99263;-75
2023/06/21 14:07:06;;;;;;;4.00;1.85;;;;;;;;;;5074435;27;98876;-75
2023/06/21 14:09:35;;;;;;;;;;;;;;;;;;5054833;27;99233;-75
2023/06/21 14:12:02;;;;;;;8.38;3.20;;;;;;;;;;5060436;27;112634;-75
2023/06/21 14:14:28;;;;;;;10.02;3.00;;;;;;;;;;5065745;27;100934;-77
2023/06/21 14:16:55;;;;;;;7.15;2.65;;;;;;;;;;5060489;27;101027;-77
2023/06/21 14:19:22;;;;;;;6.10;2.28;;;;;;;;;;5053504;27;100744;-76
2023/06/21 14:21:48;;;;;;;6.03;2.42;;;;;;;;;;5067380;27;98407;-76
2023/06/21 14:24:15;;;;;;;4.95;1.80;;;;;;;;;;5065363;27;98848;-76
2023/06/21 14:26:42;;;;;;;4.88;1.75;;;;;;;;;;5054736;27;98787;-75
2023/06/21 14:29:08;;;;;;;;;;;;;;;;;;5059083;27;99666;-76
2023/06/21 14:31:35;;;;;;;4.68;1.90;;;;;;;;;;5061008;27;115631;-76
2023/06/21 14:34:02;;;;;;;4.50;1.80;;;;;;;;;;5051170;27;100661;-76
2023/06/21 14:36:29;;;;;;;4.85;2.20;;;;;;;;;;5073441;27;98177;-75
2023/06/21 14:38:55;;;;;;;7.25;2.30;;;;;;;;;;5054359;27;98771;-77